Time,TemperatureF,DewpointF,PressureIn,WindDirection,WindDirectionDegrees,WindSpeedMPH,WindSpeedGustMPH,Humidity,HourlyPrecipIn,Conditions,Clouds,dailyrainin,SolarRadiationWatts/m^2,SoftwareType,DateUTC
2013-02-05 00:13:00,45.2,37.0,30.04,East,98,0.0,0.0,74,0.00,,,0.00,0,weatherlink.com 1.10,2013-02-05 08:13:00,
2013-02-05 00:28:00,44.8,37.0,30.04,East,98,0.0,0.0,75,0.00,,,0.00,0,weatherlink.com 1.10,2013-02-05 08:28:00,
2013-02-05 00:43:00,44.5,37.0,30.04,East,98,0.0,0.0,75,0.00,,,0.00,0,weatherlink.com 1.10,2013-02-05 08:43:00,
2013-02-05 00:58:00,44.3,37.0,30.03,East,98,0.0,0.0,74,0.00,,,0.00,0,weatherlink.com 1.10,2013-02-05 08:58:00,
2013-02-05 01:13:00,44.3,37.0,30.04,East,98,0.0,0.0,74,0.00,,,0.00,0,weatherlink.com 1.10,2013-02-05 09:13:00,
2013-02-05 01:28:00,44.1,36.0,30.04,East,98,0.0,0.0,74,0.00,,,0.00,0,weatherlink.com 1.10,2013-02-05 09:28:00,
2013-02-05 01:43:00,43.9,36.0,30.04,East,98,0.0,0.0,74,0.00,,,0.00,0,weatherlink.com 1.10,2013-02-05 09:43:00,
2013-02-05 01:58:00,43.6,36.0,30.04,East,98,0.0,0.0,74,0.00,,,0.00,0,weatherlink.com 1.10,2013-02-05 09:58:00,
2013-02-05 02:13:00,43.3,36.0,30.04,East,98,0.0,0.0,74,0.00,,,0.00,0,weatherlink.com 1.10,2013-02-05 10:13:00,
2013-02-05 02:28:00,43.1,35.0,30.04,East,98,0.0,0.0,74,0.00,,,0.00,0,weatherlink.com 1.10,2013-02-05 10:28:00,
2013-02-05 02:43:00,42.6,35.0,30.03,East,98,0.0,0.0,74,0.00,,,0.00,0,weatherlink.com 1.10,2013-02-05 10:43:00,
2013-02-05 02:58:00,41.9,35.0,30.03,East,98,0.0,0.0,75,0.00,,,0.00,0,weatherlink.com 1.10,2013-02-05 10:58:00,
2013-02-05 03:13:00,41.5,34.0,30.02,East,98,0.0,0.0,75,0.00,,,0.00,0,weatherlink.com 1.10,2013-02-05 11:13:00,
2013-02-05 03:28:00,41.1,34.0,30.02,East,98,0.0,0.0,76,0.00,,,0.00,0,weatherlink.com 1.10,2013-02-05 11:28:00,
2013-02-05 03:43:00,40.9,34.0,30.02,East,98,0.0,1.0,76,0.00,,,0.00,0,weatherlink.com 1.10,2013-02-05 11:43:00,
2013-02-05 03:58:00,41.2,34.0,30.02,East,98,0.0,0.0,75,0.00,,,0.00,0,weatherlink.com 1.10,2013-02-05 11:58:00,
2013-02-05 04:13:00,42.1,33.0,30.02,East,98,0.0,2.0,69,0.00,,,0.00,0,weatherlink.com 1.10,2013-02-05 12:13:00,
2013-02-05 04:28:00,44.2,32.0,30.01,East,91,1.0,3.0,63,0.00,,,0.00,0,weatherlink.com 1.10,2013-02-05 12:28:00,
2013-02-05 04:43:00,45.7,32.0,30.00,East,88,1.0,3.0,59,0.00,,,0.00,0,weatherlink.com 1.10,2013-02-05 12:43:00,
2013-02-05 04:58:00,45.8,32.0,30.00,East,90,0.0,3.0,58,0.00,,,0.00,0,weatherlink.com 1.10,2013-02-05 12:58:00,
2013-02-05 05:13:00,45.2,31.0,29.99,East,88,1.0,3.0,59,0.00,,,0.00,0,weatherlink.com 1.10,2013-02-05 13:13:00,
2013-02-05 05:29:00,45.5,31.0,29.99,East,88,0.0,2.0,58,0.00,,,0.00,0,weatherlink.com 1.10,2013-02-05 13:29:00,
2013-02-05 05:43:00,45.4,32.0,29.99,East,92,0.0,3.0,61,0.00,,,0.00,0,weatherlink.com 1.10,2013-02-05 13:43:00,
2013-02-05 05:58:00,44.5,32.0,29.99,East,92,0.0,0.0,62,0.00,,,0.00,0,weatherlink.com 1.10,2013-02-05 13:58:00,
2013-02-05 06:13:00,43.1,31.0,29.99,East,92,0.0,0.0,63,0.00,,,0.00,0,weatherlink.com 1.10,2013-02-05 14:13:00,
2013-02-05 06:29:00,41.6,31.0,30.00,East,92,0.0,0.0,66,0.00,,,0.00,0,weatherlink.com 1.10,2013-02-05 14:29:00,
2013-02-05 06:44:00,41.1,31.0,30.00,East,92,0.0,0.0,68,0.00,,,0.00,0,weatherlink.com 1.10,2013-02-05 14:44:00,
2013-02-05 06:58:00,40.6,31.0,30.00,East,92,0.0,0.0,69,0.00,,,0.00,0,weatherlink.com 1.10,2013-02-05 14:58:00,
2013-02-05 07:13:00,40.3,31.0,30.01,East,92,0.0,0.0,69,0.00,,,0.00,0,weatherlink.com 1.10,2013-02-05 15:13:00,
2013-02-05 07:28:00,40.1,31.0,30.01,East,92,0.0,0.0,71,0.00,,,0.00,9,weatherlink.com 1.10,2013-02-05 15:28:00,
2013-02-05 07:43:00,40.3,33.0,30.02,East,92,0.0,0.0,74,0.00,,,0.00,19,weatherlink.com 1.10,2013-02-05 15:43:00,
2013-02-05 07:58:00,41.9,35.0,30.02,East,92,0.0,0.0,75,0.00,,,0.00,30,weatherlink.com 1.10,2013-02-05 15:58:00,
2013-02-05 08:14:00,43.2,35.0,30.02,East,92,0.0,0.0,73,0.00,,,0.00,40,weatherlink.com 1.10,2013-02-05 16:14:00,
2013-02-05 08:29:00,43.5,35.0,30.03,East,92,0.0,0.0,73,0.00,,,0.00,47,weatherlink.com 1.10,2013-02-05 16:29:00,
2013-02-05 08:44:00,44.8,34.0,30.02,East,92,0.0,2.0,65,0.00,,,0.00,46,weatherlink.com 1.10,2013-02-05 16:44:00,
2013-02-05 08:59:00,47.0,33.0,30.03,East,94,0.0,5.0,58,0.00,,,0.00,54,weatherlink.com 1.10,2013-02-05 16:59:00,
2013-02-05 09:14:00,48.8,33.0,30.03,East,94,0.0,3.0,55,0.00,,,0.00,83,weatherlink.com 1.10,2013-02-05 17:14:00,
2013-02-05 09:29:00,51.0,35.0,30.02,East,92,0.0,0.0,54,0.00,,,0.00,109,weatherlink.com 1.10,2013-02-05 17:29:00,
2013-02-05 09:44:00,52.2,38.0,30.03,WSW,242,3.0,3.0,59,0.00,,,0.00,257,weatherlink.com 1.10,2013-02-05 17:44:00,
2013-02-05 09:59:00,52.9,38.0,30.04,WSW,240,0.0,1.0,58,0.00,,,0.00,174,weatherlink.com 1.10,2013-02-05 17:59:00,
2013-02-05 10:14:00,53.2,39.0,30.03,South,173,0.0,2.0,59,0.00,,,0.00,174,weatherlink.com 1.10,2013-02-05 18:14:00,
2013-02-05 10:29:00,53.8,40.0,30.04,WSW,257,0.0,4.0,60,0.00,,,0.00,200,weatherlink.com 1.10,2013-02-05 18:29:00,
2013-02-05 10:44:00,53.3,40.0,30.04,SSW,193,0.0,4.0,62,0.00,,,0.00,260,weatherlink.com 1.10,2013-02-05 18:44:00,
2013-02-05 10:59:00,53.3,41.0,30.04,ENE,57,1.0,2.0,64,0.00,,,0.00,181,weatherlink.com 1.10,2013-02-05 18:59:00,
2013-02-05 11:14:00,53.5,41.0,30.03,NW,321,1.0,4.0,62,0.00,,,0.00,192,weatherlink.com 1.10,2013-02-05 19:14:00,
2013-02-05 11:29:00,54.2,41.0,30.03,SE,138,0.0,3.0,62,0.00,,,0.00,225,weatherlink.com 1.10,2013-02-05 19:29:00,
2013-02-05 11:44:00,54.8,41.0,30.02,SW,225,0.0,5.0,60,0.00,,,0.00,202,weatherlink.com 1.10,2013-02-05 19:44:00,
2013-02-05 11:59:00,53.6,41.0,30.02,SW,221,0.0,5.0,62,0.00,,,0.00,195,weatherlink.com 1.10,2013-02-05 19:59:00,
2013-02-05 12:14:00,53.8,41.0,30.01,SSW,193,0.0,2.0,62,0.00,,,0.00,192,weatherlink.com 1.10,2013-02-05 20:14:00,
2013-02-05 12:29:00,53.3,41.0,30.00,SE,126,0.0,3.0,63,0.00,,,0.00,176,weatherlink.com 1.10,2013-02-05 20:29:00,
2013-02-05 12:44:00,54.1,42.0,30.00,ESE,116,0.0,2.0,63,0.00,,,0.00,190,weatherlink.com 1.10,2013-02-05 20:44:00,
2013-02-05 12:59:00,53.8,41.0,30.00,SE,130,3.0,5.0,62,0.00,,,0.00,199,weatherlink.com 1.10,2013-02-05 20:59:00,
2013-02-05 13:14:00,53.9,41.0,29.99,SSE,167,0.0,8.0,62,0.00,,,0.00,410,weatherlink.com 1.10,2013-02-05 21:14:00,
2013-02-05 13:29:00,54.5,41.0,29.99,SE,132,3.0,5.0,61,0.00,,,0.00,302,weatherlink.com 1.10,2013-02-05 21:29:00,
2013-02-05 13:44:00,56.0,41.0,29.98,WSW,238,1.0,5.0,58,0.00,,,0.00,165,weatherlink.com 1.10,2013-02-05 21:44:00,
2013-02-05 13:59:00,54.8,41.0,29.98,SW,232,0.0,5.0,61,0.00,,,0.00,155,weatherlink.com 1.10,2013-02-05 21:59:00,
2013-02-05 14:14:00,54.4,42.0,29.98,SSW,206,0.0,4.0,63,0.00,,,0.00,190,weatherlink.com 1.10,2013-02-05 22:14:00,
2013-02-05 14:29:00,53.8,42.0,29.98,NNE,14,3.0,5.0,64,0.00,,,0.00,151,weatherlink.com 1.10,2013-02-05 22:29:00,
2013-02-05 14:44:00,53.6,43.0,29.98,SW,225,0.0,4.0,68,0.00,,,0.00,162,weatherlink.com 1.10,2013-02-05 22:44:00,
2013-02-05 14:59:00,51.9,43.0,29.99,NNE,15,1.0,3.0,72,0.00,,,0.00,130,weatherlink.com 1.10,2013-02-05 22:59:00,
2013-02-05 15:15:00,51.6,43.0,29.98,West,271,1.0,2.0,73,0.00,,,0.00,76,weatherlink.com 1.10,2013-02-05 23:15:00,
2013-02-05 15:29:00,51.6,43.0,29.99,West,273,2.0,3.0,73,0.00,,,0.00,79,weatherlink.com 1.10,2013-02-05 23:29:00,
2013-02-05 15:45:00,51.4,43.0,29.99,WSW,246,2.0,3.0,73,0.00,,,0.00,54,weatherlink.com 1.10,2013-02-05 23:45:00,
2013-02-05 15:59:00,50.8,42.0,30.00,South,180,0.0,2.0,73,0.00,,,0.00,47,weatherlink.com 1.10,2013-02-05 23:59:00,
2013-02-05 16:14:00,50.1,42.0,30.00,SSE,150,1.0,4.0,75,0.00,,,0.00,33,weatherlink.com 1.10,2013-02-06 00:14:00,
2013-02-05 16:29:00,49.1,42.0,30.00,SSE,158,0.0,3.0,77,0.00,,,0.00,49,weatherlink.com 1.10,2013-02-06 00:29:00,
2013-02-05 16:45:00,47.3,41.0,30.00,South,180,0.0,4.0,80,0.00,,,0.00,26,weatherlink.com 1.10,2013-02-06 00:45:00,
2013-02-05 16:59:00,46.4,41.0,30.01,SE,130,0.0,3.0,81,0.00,,,0.00,16,weatherlink.com 1.10,2013-02-06 00:59:00,
2013-02-05 17:14:00,46.4,41.0,30.02,ESE,121,0.0,4.0,81,0.00,,,0.00,9,weatherlink.com 1.10,2013-02-06 01:14:00,
2013-02-05 17:29:00,45.7,40.0,30.02,SSE,166,2.0,3.0,79,0.00,,,0.00,0,weatherlink.com 1.10,2013-02-06 01:29:00,
2013-02-05 17:59:00,45.1,39.0,30.02,SE,143,0.0,2.0,80,0.00,,,0.00,0,weatherlink.com 1.10,2013-02-06 01:59:00,
2013-02-05 18:14:00,44.6,39.0,30.02,SE,143,0.0,1.0,80,0.00,,,0.00,0,weatherlink.com 1.10,2013-02-06 02:14:00,
2013-02-05 18:29:00,44.1,38.0,30.02,East,85,1.0,2.0,80,0.00,,,0.00,0,weatherlink.com 1.10,2013-02-06 02:29:00,
2013-02-05 18:44:00,43.5,38.0,30.03,ESE,105,0.0,0.0,81,0.00,,,0.00,0,weatherlink.com 1.10,2013-02-06 02:44:00,
2013-02-05 18:59:00,43.1,38.0,30.03,ESE,105,0.0,1.0,81,0.00,,,0.00,0,weatherlink.com 1.10,2013-02-06 02:59:00,
2013-02-05 19:14:00,42.6,38.0,30.03,ESE,105,0.0,0.0,82,0.00,,,0.00,0,weatherlink.com 1.10,2013-02-06 03:14:00,
2013-02-05 19:29:00,42.1,37.0,30.04,ESE,105,0.0,2.0,83,0.00,,,0.00,0,weatherlink.com 1.10,2013-02-06 03:29:00,
2013-02-05 19:44:00,42.1,38.0,30.04,ESE,105,0.0,1.0,84,0.00,,,0.00,0,weatherlink.com 1.10,2013-02-06 03:44:00,
2013-02-05 20:00:00,41.6,37.0,30.05,ESE,105,0.0,2.0,84,0.00,,,0.00,0,weatherlink.com 1.10,2013-02-06 04:00:00,
2013-02-05 20:14:00,41.8,38.0,30.05,East,93,0.0,2.0,85,0.00,,,0.00,0,weatherlink.com 1.10,2013-02-06 04:14:00,
2013-02-05 20:29:00,41.8,38.0,30.05,East,93,0.0,2.0,85,0.00,,,0.00,0,weatherlink.com 1.10,2013-02-06 04:29:00,
2013-02-05 20:44:00,41.9,38.0,30.05,East,93,0.0,2.0,86,0.00,,,0.00,0,weatherlink.com 1.10,2013-02-06 04:44:00,
2013-02-05 20:59:00,41.5,37.0,30.06,East,93,0.0,0.0,85,0.00,,,0.00,0,weatherlink.com 1.10,2013-02-06 04:59:00,
2013-02-05 21:14:00,40.6,36.0,30.07,East,93,0.0,0.0,84,0.00,,,0.00,0,weatherlink.com 1.10,2013-02-06 05:14:00,
2013-02-05 21:29:00,40.1,36.0,30.07,East,93,0.0,0.0,85,0.00,,,0.00,0,weatherlink.com 1.10,2013-02-06 05:29:00,
2013-02-05 21:45:00,39.6,36.0,30.07,East,93,0.0,1.0,86,0.00,,,0.00,0,weatherlink.com 1.10,2013-02-06 05:45:00,
2013-02-05 21:59:00,39.9,36.0,30.07,East,93,0.0,1.0,87,0.00,,,0.00,0,weatherlink.com 1.10,2013-02-06 05:59:00,
2013-02-05 22:15:00,39.5,36.0,30.07,East,93,0.0,0.0,86,0.00,,,0.00,0,weatherlink.com 1.10,2013-02-06 06:15:00,
2013-02-05 22:30:00,38.9,35.0,30.07,East,93,0.0,0.0,86,0.00,,,0.00,0,weatherlink.com 1.10,2013-02-06 06:30:00,
2013-02-05 22:45:00,38.5,35.0,30.08,East,93,0.0,0.0,87,0.00,,,0.00,0,weatherlink.com 1.10,2013-02-06 06:45:00,
2013-02-05 23:00:00,38.2,35.0,30.08,East,93,0.0,0.0,87,0.00,,,0.00,0,weatherlink.com 1.10,2013-02-06 07:00:00,
2013-02-05 23:15:00,37.9,34.0,30.08,East,93,0.0,0.0,87,0.00,,,0.00,0,weatherlink.com 1.10,2013-02-06 07:15:00,
2013-02-05 23:30:00,37.6,34.0,30.09,East,93,0.0,0.0,87,0.00,,,0.00,0,weatherlink.com 1.10,2013-02-06 07:30:00,
2013-02-05 23:45:00,37.2,34.0,30.09,East,93,0.0,0.0,87,0.00,,,0.00,0,weatherlink.com 1.10,2013-02-06 07:45:00,